Time;durP1;ratioP1;P1;durP2;ratioP2;P2;SDS_P1;SDS_P2;PMS_P1;PMS_P2;Temp;Humidity;BMP_temperature;BMP_pressure;BME280_temperature;BME280_humidity;BME280_pressure;Samples;Min_cycle;Max_cycle;Signal;HPM_P1;HPM_P2
2023/10/22 00:02:18;;;;;;;1.93;1.83;;;14.80;55.20;;;;;;20634;6867;117390;-79
2023/10/22 00:04:45;;;;;;;2.03;1.57;;;14.80;55.40;;;;;;20637;6867;119152;-78
2023/10/22 00:07:14;;;;;;;2.10;1.90;;;14.50;56.10;;;;;;20433;6867;278960;-78
2023/10/22 00:09:37;;;;;;;1.60;1.50;;;14.60;56.00;;;;;;20610;6867;123164;-78
2023/10/22 00:12:05;;;;;;;1.60;1.50;;;14.60;56.10;;;;;;20427;6867;337927;-78
2023/10/22 00:14:31;;;;;;;2.40;1.90;;;14.50;56.00;;;;;;20643;6867;117400;-78
2023/10/22 00:16:56;;;;;;;1.33;1.33;;;14.50;56.30;;;;;;20638;6867;117764;-78
2023/10/22 00:19:23;;;;;;;1.80;1.70;;;14.30;56.70;;;;;;20391;6867;310374;-79
2023/10/22 00:21:49;;;;;;;1.60;1.50;;;14.40;56.30;;;;;;20567;6867;119491;-78
2023/10/22 00:24:14;;;;;;;2.40;1.80;;;14.40;56.40;;;;;;20410;6867;342012;-78
2023/10/22 00:26:40;;;;;;;1.90;1.80;;;14.50;56.00;;;;;;20636;6867;117315;-78
2023/10/22 00:29:06;;;;;;;1.85;1.75;;;14.50;56.00;;;;;;20411;6867;337708;-78
2023/10/22 00:31:33;;;;;;;2.27;2.10;;;14.60;55.70;;;;;;20396;6867;338540;-78
2023/10/22 00:33:58;;;;;;;2.27;2.07;;;14.80;54.90;;;;;;20629;6867;120107;-78
2023/10/22 00:36:24;;;;;;;2.30;1.80;;;14.80;55.20;;;;;;20630;6867;117757;-78
2023/10/22 00:38:49;;;;;;;1.65;1.55;;;14.50;55.70;;;;;;20626;6867;117818;-78
2023/10/22 00:41:16;;;;;;;1.83;1.70;;;14.30;56.20;;;;;;20633;6867;118298;-77
2023/10/22 00:43:42;;;;;;;1.77;1.60;;;14.20;56.10;;;;;;20407;6867;278841;-78
2023/10/22 00:46:11;;;;;;;2.37;2.20;;;14.20;56.00;;;;;;20418;6867;310030;-78
2023/10/22 00:48:36;;;;;;;2.10;2.00;;;14.50;55.30;;;;;;20401;6867;291607;-78
2023/10/22 00:51:02;;;;;;;2.10;2.00;;;14.70;54.80;;;;;;20416;6867;308455;-78
2023/10/22 00:53:30;;;;;;;1.90;1.80;;;15.00;54.20;;;;;;20617;6867;122171;-79
2023/10/22 00:55:53;;;;;;;2.42;1.70;;;14.70;54.50;;;;;;20415;6867;338037;-78
2023/10/22 00:58:19;;;;;;;2.00;1.73;;;14.70;54.50;;;;;;20612;6867;118456;-78
2023/10/22 01:00:45;;;;;;;1.67;1.50;;;14.50;54.80;;;;;;20630;6867;117381;-78
2023/10/22 01:03:10;;;;;;;1.70;1.60;;;14.30;55.50;;;;;;20630;6867;118480;-78
2023/10/22 01:05:37;;;;;;;1.80;1.70;;;13.70;56.30;;;;;;20611;6867;118169;-78
2023/10/22 01:08:02;;;;;;;1.40;1.30;;;13.70;56.20;;;;;;20632;6866;118714;-78
2023/10/22 01:10:27;;;;;;;1.83;1.73;;;13.50;56.60;;;;;;20635;6867;118930;-78
2023/10/22 01:12:53;;;;;;;1.53;1.43;;;13.30;56.90;;;;;;20632;6867;117330;-79
2023/10/22 01:15:18;;;;;;;1.87;1.77;;;13.20;57.20;;;;;;20628;6867;117302;-78
2023/10/22 01:17:44;;;;;;;5.25;1.65;;;13.00;57.40;;;;;;20618;6867;117452;-79
2023/10/22 01:20:10;;;;;;;2.12;1.92;;;12.90;57.60;;;;;;20418;6867;280595;-79
2023/10/22 01:22:35;;;;;;;2.50;2.00;;;13.10;57.20;;;;;;20411;6867;310945;-79
2023/10/22 01:25:01;;;;;;;2.50;2.30;;;13.50;56.60;;;;;;20634;6867;120708;-79
2023/10/22 01:27:27;;;;;;;2.17;2.00;;;13.50;56.60;;;;;;20399;6867;278459;-79
2023/10/22 01:29:52;;;;;;;2.00;1.90;;;13.60;56.30;;;;;;20416;6867;309075;-78
2023/10/22 01:32:18;;;;;;;2.00;1.80;;;13.90;55.70;;;;;;20411;6867;337200;-79
2023/10/22 01:34:45;;;;;;;2.00;1.80;;;14.10;54.90;;;;;;20414;6867;283487;-78
2023/10/22 01:37:10;;;;;;;2.60;1.57;;;14.20;54.40;;;;;;20626;6867;121705;-79
2023/10/22 01:39:36;;;;;;;1.77;1.67;;;14.00;54.80;;;;;;20404;6867;279357;-79
2023/10/22 01:42:01;;;;;;;1.48;1.40;;;13.90;54.70;;;;;;20632;6867;118641;-78
2023/10/22 01:44:27;;;;;;;1.47;1.37;;;13.80;55.10;;;;;;20410;6867;278144;-78
2023/10/22 01:46:52;;;;;;;1.48;1.37;;;13.80;55.10;;;;;;20425;6867;283677;-79
2023/10/22 01:49:18;;;;;;;1.70;1.40;;;13.90;54.40;;;;;;20418;6867;339730;-79
2023/10/22 01:51:43;;;;;;;1.03;1.03;;;14.10;53.80;;;;;;20617;6867;117839;-78
2023/10/22 01:54:09;;;;;;;1.50;1.42;;;13.90;54.20;;;;;;20426;6867;307522;-78
2023/10/22 01:56:35;;;;;;;1.50;1.40;;;13.80;53.90;;;;;;20633;6867;117838;-78
2023/10/22 01:59:00;;;;;;;1.60;1.50;;;13.60;54.20;;;;;;20640;6867;118233;-78
2023/10/22 02:01:26;;;;;;;1.60;1.50;;;13.30;54.90;;;;;;20640;6867;118078;-80
2023/10/22 02:03:51;;;;;;;1.60;1.50;;;13.00;55.50;;;;;;20463;6867;118334;-79
2023/10/22 02:06:18;;;;;;;1.50;1.37;;;12.60;56.60;;;;;;20633;6867;118110;-79
2023/10/22 02:08:43;;;;;;;1.40;1.30;;;12.60;56.50;;;;;;20417;6867;308603;-79
2023/10/22 02:11:11;;;;;;;2.40;1.00;;;12.80;56.20;;;;;;20626;6867;123177;-78
2023/10/22 02:13:36;;;;;;;3.80;1.30;;;12.80;56.20;;;;;;20611;6867;117803;-79
2023/10/22 02:16:03;;;;;;;2.42;1.60;;;12.50;57.00;;;;;;20632;6867;118649;-78
2023/10/22 02:18:28;;;;;;;0.93;0.90;;;12.50;57.00;;;;;;20629;6867;117612;-78
2023/10/22 02:20:57;;;;;;;1.53;1.43;;;12.40;57.40;;;;;;20430;6866;319595;-79
2023/10/22 02:23:23;;;;;;;1.60;1.27;;;12.60;56.90;;;;;;20434;6867;308569;-79
2023/10/22 02:25:49;;;;;;;1.17;1.00;;;12.90;55.90;;;;;;20628;6867;117423;-78
2023/10/22 02:28:15;;;;;;;1.40;1.30;;;12.90;55.90;;;;;;20635;6867;117482;-79
2023/10/22 02:30:41;;;;;;;1.63;1.10;;;12.70;56.30;;;;;;20601;6867;117400;-80
2023/10/22 02:33:06;;;;;;;1.37;1.27;;;12.50;56.80;;;;;;20419;6867;311998;-79
2023/10/22 02:35:31;;;;;;;1.40;1.30;;;12.60;56.50;;;;;;20614;6867;121442;-78
2023/10/22 02:37:58;;;;;;;1.10;1.10;;;12.50;57.00;;;;;;20630;6867;118107;-78
2023/10/22 02:40:23;;;;;;;1.52;1.45;;;12.50;57.10;;;;;;20414;6867;338978;-79
2023/10/22 02:42:50;;;;;;;1.77;1.60;;;12.70;56.80;;;;;;20411;6867;308548;-79
2023/10/22 02:45:16;;;;;;;1.50;1.00;;;13.00;56.10;;;;;;20632;6867;117465;-78
2023/10/22 02:47:42;;;;;;;1.17;1.17;;;13.00;56.20;;;;;;20611;6867;119421;-79
2023/10/22 02:50:08;;;;;;;1.40;1.30;;;12.80;56.60;;;;;;20424;6867;279363;-79
2023/10/22 02:52:33;;;;;;;1.40;1.30;;;13.00;56.10;;;;;;20636;6867;117376;-78
2023/10/22 02:54:59;;;;;;;1.60;1.50;;;13.00;56.10;;;;;;20417;6867;309267;-79
2023/10/22 02:57:24;;;;;;;1.40;1.30;;;13.10;55.60;;;;;;20638;6867;117907;-79
2023/10/22 02:59:50;;;;;;;1.60;1.50;;;13.00;55.60;;;;;;20412;6867;308259;-79
2023/10/22 03:02:16;;;;;;;1.58;1.48;;;13.40;55.00;;;;;;20423;6867;278989;-78
2023/10/22 03:04:41;;;;;;;2.30;2.10;;;13.30;54.90;;;;;;20414;6867;310640;-79
2023/10/22 03:07:07;;;;;;;3.80;3.50;;;13.60;54.40;;;;;;20628;6867;117364;-78
2023/10/22 03:09:33;;;;;;;1.80;1.70;;;13.40;54.70;;;;;;20595;6867;133343;-78
2023/10/22 03:11:58;;;;;;;1.30;1.30;;;13.00;55.20;;;;;;20628;6867;117448;-78
2023/10/22 03:14:24;;;;;;;1.60;1.50;;;12.80;55.80;;;;;;20420;6867;283807;-79
2023/10/22 03:16:49;;;;;;;1.50;1.40;;;12.90;55.60;;;;;;20630;6867;117565;-79
2023/10/22 03:19:17;;;;;;;1.60;1.50;;;12.80;55.60;;;;;;20419;6867;279393;-79
2023/10/22 03:21:41;;;;;;;1.80;1.23;;;12.90;55.30;;;;;;20396;6867;278449;-79
2023/10/22 03:24:08;;;;;;;1.47;1.37;;;13.20;54.90;;;;;;20627;6867;117516;-78
2023/10/22 03:26:32;;;;;;;1.60;1.50;;;13.00;55.00;;;;;;20414;6867;280745;-78
2023/10/22 03:28:57;;;;;;;1.20;1.20;;;13.00;54.80;;;;;;20410;6867;308695;-79
2023/10/22 03:31:23;;;;;;;1.85;1.60;;;13.20;54.40;;;;;;20418;6866;308622;-79
2023/10/22 03:33:48;;;;;;;1.43;1.33;;;13.40;53.80;;;;;;20397;6867;341583;-79
2023/10/22 03:36:15;;;;;;;1.70;1.50;;;13.50;53.60;;;;;;20420;6867;308026;-79
2023/10/22 03:38:40;;;;;;;1.33;1.23;;;13.40;54.00;;;;;;20629;6867;117748;-78
2023/10/22 03:41:07;;;;;;;1.07;1.07;;;13.40;53.90;;;;;;20639;6867;117816;-79
2023/10/22 03:43:33;;;;;;;1.93;1.23;;;13.10;54.70;;;;;;20620;6867;117811;-79
2023/10/22 03:45:58;;;;;;;1.40;1.30;;;12.80;55.40;;;;;;20630;6867;121373;-79
2023/10/22 03:48:24;;;;;;;1.60;1.50;;;12.50;55.80;;;;;;20413;6867;312676;-78
2023/10/22 03:50:49;;;;;;;1.30;1.20;;;12.70;55.40;;;;;;20625;6867;117807;-79
2023/10/22 03:53:15;;;;;;;1.63;1.47;;;12.80;55.30;;;;;;20420;6867;339977;-78
2023/10/22 03:55:41;;;;;;;2.17;1.40;;;12.80;55.20;;;;;;20612;6867;117441;-78
2023/10/22 03:58:06;;;;;;;1.60;1.50;;;12.70;55.20;;;;;;20410;6867;279708;-79
2023/10/22 04:00:32;;;;;;;2.05;1.12;;;12.90;55.00;;;;;;20626;6867;117539;-78
2023/10/22 04:02:58;;;;;;;1.33;1.00;;;12.70;55.00;;;;;;20628;6867;117315;-78
2023/10/22 04:05:25;;;;;;;1.67;1.30;;;12.50;55.50;;;;;;20593;6867;117188;-79
2023/10/22 04:07:50;;;;;;;1.65;1.40;;;12.30;56.50;;;;;;20385;6867;308482;-79
2023/10/22 04:10:16;;;;;;;1.63;1.10;;;12.40;56.10;;;;;;20632;6867;117319;-79
2023/10/22 04:12:42;;;;;;;1.70;1.60;;;12.40;56.10;;;;;;20431;6867;308487;-79
2023/10/22 04:15:08;;;;;;;1.90;1.33;;;12.60;56.10;;;;;;20423;6867;311244;-79
2023/10/22 04:17:34;;;;;;;1.53;1.20;;;12.90;55.60;;;;;;20386;6867;321730;-78
2023/10/22 04:19:59;;;;;;;2.43;1.10;;;13.20;54.90;;;;;;20622;6867;117437;-79
2023/10/22 04:22:26;;;;;;;1.53;1.43;;;13.10;55.20;;;;;;20414;6867;279007;-79
2023/10/22 04:24:50;;;;;;;2.37;1.30;;;13.10;54.70;;;;;;20622;6867;117218;-78
2023/10/22 04:27:16;;;;;;;1.95;1.33;;;13.00;55.00;;;;;;20421;6867;317363;-79
2023/10/22 04:29:43;;;;;;;2.33;1.20;;;13.10;54.50;;;;;;20401;6867;308533;-78
2023/10/22 04:32:08;;;;;;;1.47;1.00;;;13.20;54.20;;;;;;20631;6867;119785;-78
2023/10/22 04:34:33;;;;;;;1.43;1.30;;;13.20;54.20;;;;;;20629;6867;121343;-79
2023/10/22 04:36:59;;;;;;;1.55;1.12;;;13.00;55.50;;;;;;20318;6867;280246;-79
2023/10/22 04:39:25;;;;;;;2.12;1.33;;;13.00;54.50;;;;;;20359;6867;337979;-79
2023/10/22 04:41:51;;;;;;;1.10;1.10;;;13.50;53.40;;;;;;20317;6867;295651;-81
2023/10/22 04:44:17;;;;;;;5.37;1.27;;;13.50;53.40;;;;;;20492;6866;117263;-78
2023/10/22 04:46:42;;;;;;;2.20;1.20;;;13.40;53.80;;;;;;20581;6867;117579;-77
2023/10/22 04:49:08;;;;;;;1.50;1.23;;;13.00;54.40;;;;;;20421;6867;295008;-78
2023/10/22 04:51:34;;;;;;;1.87;1.10;;;13.10;54.10;;;;;;20344;6867;314248;-78
2023/10/22 04:53:59;;;;;;;1.53;1.30;;;13.30;53.50;;;;;;20369;6867;281600;-78
2023/10/22 04:56:26;;;;;;;1.50;1.10;;;13.50;53.00;;;;;;20373;6867;280137;-78
2023/10/22 04:58:51;;;;;;;1.63;1.03;;;13.70;52.60;;;;;;20587;6867;117363;-77
2023/10/22 05:01:16;;;;;;;1.30;1.20;;;13.50;53.20;;;;;;20390;6867;307963;-78
2023/10/22 05:03:42;;;;;;;2.37;1.00;;;13.50;53.00;;;;;;20590;6867;118199;-78
2023/10/22 05:06:08;;;;;;;2.53;1.23;;;13.30;53.40;;;;;;20385;6867;313044;-77
2023/10/22 05:08:35;;;;;;;0.90;0.90;;;13.20;53.70;;;;;;20627;6867;118635;-77
2023/10/22 05:10:59;;;;;;;1.13;1.07;;;13.10;53.60;;;;;;20614;6867;117280;-77
2023/10/22 05:13:25;;;;;;;1.23;1.13;;;12.90;54.30;;;;;;20607;6867;118020;-80
2023/10/22 05:15:51;;;;;;;2.20;1.17;;;12.60;54.90;;;;;;20370;6867;282805;-76
2023/10/22 05:18:16;;;;;;;1.57;1.37;;;12.70;54.80;;;;;;20629;6867;117268;-79
2023/10/22 05:20:42;;;;;;;2.40;1.90;;;12.60;54.90;;;;;;20420;6867;337428;-79
2023/10/22 05:23:08;;;;;;;1.17;1.17;;;12.80;54.60;;;;;;20638;6867;121440;-80
2023/10/22 05:25:36;;;;;;;1.37;1.27;;;12.70;54.80;;;;;;20385;6867;342341;-81
2023/10/22 05:28:01;;;;;;;2.00;1.15;;;12.80;54.50;;;;;;20399;6867;279122;-84
2023/10/22 05:30:28;;;;;;;1.50;1.37;;;13.30;53.50;;;;;;20407;6867;309754;-82
2023/10/22 05:32:56;;;;;;;2.20;1.50;;;13.30;53.50;;;;;;20379;6867;308865;-80
2023/10/22 05:35:24;;;;;;;1.00;0.83;;;13.40;53.00;;;;;;20613;6867;118624;-81
2023/10/22 05:37:51;;;;;;;1.90;1.43;;;12.90;54.30;;;;;;20589;6867;116947;-85
2023/10/22 05:40:16;;;;;;;1.40;0.70;;;12.90;54.30;;;;;;20623;6867;117447;-77
2023/10/22 05:42:42;;;;;;;1.30;1.20;;;12.60;54.90;;;;;;20398;6867;278560;-76
2023/10/22 05:45:07;;;;;;;1.13;1.03;;;12.70;54.10;;;;;;20398;6867;306522;-76
2023/10/22 05:47:33;;;;;;;3.20;0.93;;;13.00;53.50;;;;;;20595;6867;119203;-77
2023/10/22 05:49:59;;;;;;;2.00;1.30;;;12.90;53.70;;;;;;20617;6867;117431;-78
2023/10/22 05:52:26;;;;;;;2.63;1.30;;;12.70;54.30;;;;;;20405;6867;337562;-77
2023/10/22 05:54:50;;;;;;;2.00;1.07;;;12.80;54.10;;;;;;20412;6866;279818;-79
2023/10/22 05:57:17;;;;;;;2.77;1.00;;;12.90;53.70;;;;;;20586;6867;118394;-77
2023/10/22 05:59:43;;;;;;;1.00;0.90;;;12.90;53.70;;;;;;20596;6867;120244;-83
2023/10/22 06:02:09;;;;;;;1.00;1.00;;;12.70;54.30;;;;;;20622;6867;118342;-76
2023/10/22 06:04:35;;;;;;;2.33;1.50;;;12.50;55.00;;;;;;20400;6867;337954;-75
2023/10/22 06:07:07;;;;;;;1.47;1.10;;;12.60;54.40;;;;;;20614;6867;117705;-82
2023/10/22 06:09:32;;;;;;;1.00;1.00;;;12.60;54.50;;;;;;20597;6867;124676;-74
2023/10/22 06:11:57;;;;;;;0.73;0.70;;;12.40;55.00;;;;;;20553;6867;119842;-74
2023/10/22 06:14:23;;;;;;;1.35;1.00;;;12.20;55.40;;;;;;20395;6867;336621;-75
2023/10/22 06:16:51;;;;;;;1.33;0.80;;;12.50;55.20;;;;;;20617;6867;117299;-74
2023/10/22 06:19:17;;;;;;;2.70;1.07;;;12.70;55.00;;;;;;20396;6867;280618;-74
2023/10/22 06:21:43;;;;;;;1.65;1.20;;;12.60;54.50;;;;;;20380;6867;338359;-77
2023/10/22 06:24:13;;;;;;;1.63;1.00;;;13.00;53.80;;;;;;20377;6867;279786;-74
2023/10/22 06:26:39;;;;;;;1.07;1.03;;;13.40;53.20;;;;;;20376;6867;320591;-75
2023/10/22 06:29:04;;;;;;;2.10;1.93;;;13.60;54.40;;;;;;20613;6867;117329;-74
2023/10/22 06:31:30;;;;;;;6.13;3.50;;;13.70;55.00;;;;;;20593;6867;118959;-74
2023/10/22 06:33:55;;;;;;;4.00;3.57;;;13.60;55.60;;;;;;20400;6867;342385;-78
2023/10/22 06:36:21;;;;;;;6.27;4.57;;;13.90;54.50;;;;;;20603;6867;118574;-74
2023/10/22 06:38:47;;;;;;;6.37;5.13;;;14.10;54.80;;;;;;20523;6867;117598;-79
2023/10/22 06:41:13;;;;;;;10.60;6.70;;;14.10;55.10;;;;;;20335;6867;303103;-75
2023/10/22 06:43:39;;;;;;;8.48;5.82;;;14.30;53.30;;;;;;20280;6867;281984;-76
2023/10/22 06:46:05;;;;;;;7.53;5.28;;;14.80;52.00;;;;;;20356;6867;337165;-78
2023/10/22 06:48:30;;;;;;;10.23;6.65;;;15.30;50.80;;;;;;20362;6867;308683;-76
2023/10/22 06:50:56;;;;;;;6.40;5.20;;;15.70;50.80;;;;;;20393;6867;284559;-81
2023/10/22 06:53:22;;;;;;;8.27;5.03;;;16.00;49.00;;;;;;20605;6867;117481;-80
2023/10/22 06:55:47;;;;;;;6.27;4.90;;;16.00;49.80;;;;;;20373;6867;307836;-77
2023/10/22 06:58:13;;;;;;;6.95;5.37;;;16.10;48.60;;;;;;20411;6867;311125;-76
2023/10/22 07:00:38;;;;;;;10.50;8.88;;;16.40;47.80;;;;;;20616;6867;117416;-77
2023/10/22 07:03:05;;;;;;;6.43;5.73;;;16.50;47.50;;;;;;20383;6867;283486;-76
2023/10/22 07:05:31;;;;;;;4.53;4.07;;;16.40;47.50;;;;;;20592;6867;119602;-77
2023/10/22 07:07:56;;;;;;;4.62;3.78;;;16.40;48.30;;;;;;20618;6866;117347;-77
2023/10/22 07:10:22;;;;;;;3.33;3.13;;;16.30;49.10;;;;;;20615;6867;117338;-75
2023/10/22 07:12:47;;;;;;;3.10;2.80;;;16.20;49.70;;;;;;20425;6867;309613;-76
2023/10/22 07:15:13;;;;;;;8.93;8.23;;;16.40;47.80;;;;;;20411;6867;278242;-76
2023/10/22 07:17:39;;;;;;;5.60;5.20;;;16.70;46.70;;;;;;20379;6867;308215;-77
2023/10/22 07:20:06;;;;;;;6.80;6.27;;;17.10;46.10;;;;;;20626;6867;121844;-78
2023/10/22 07:22:30;;;;;;;5.93;5.43;;;17.10;46.90;;;;;;20625;6867;117219;-77
2023/10/22 07:24:56;;;;;;;5.30;4.90;;;17.00;47.80;;;;;;20622;6867;117367;-77
2023/10/22 07:27:22;;;;;;;3.87;3.67;;;16.80;48.40;;;;;;20618;6867;117545;-77
2023/10/22 07:29:50;;;;;;;3.13;3.00;;;16.70;48.90;;;;;;20597;6867;117949;-80
2023/10/22 07:32:16;;;;;;;2.97;2.77;;;16.70;49.30;;;;;;20624;6867;117842;-77
2023/10/22 07:34:42;;;;;;;2.40;2.25;;;16.60;49.50;;;;;;20420;6867;308298;-76
2023/10/22 07:37:09;;;;;;;2.20;2.00;;;16.90;47.20;;;;;;20410;6867;310780;-77
2023/10/22 07:39:35;;;;;;;2.10;2.00;;;17.70;45.60;;;;;;20388;6867;311278;-75
2023/10/22 07:42:00;;;;;;;3.33;1.87;;;17.70;46.20;;;;;;20411;6867;282249;-75
2023/10/22 07:44:26;;;;;;;2.20;2.00;;;18.00;44.80;;;;;;20416;6867;284357;-74
2023/10/22 07:46:52;;;;;;;2.20;2.10;;;18.20;44.10;;;;;;20619;6867;117624;-77
2023/10/22 07:49:20;;;;;;;2.10;2.00;;;18.20;45.20;;;;;;20401;6867;309376;-74
2023/10/22 07:51:43;;;;;;;2.87;2.50;;;18.30;44.30;;;;;;20391;6867;312691;-74
2023/10/22 07:54:09;;;;;;;1.80;1.70;;;18.50;45.80;;;;;;20606;6867;117751;-74
2023/10/22 07:56:38;;;;;;;1.85;1.60;;;18.50;45.00;;;;;;20409;6867;335716;-74
2023/10/22 07:59:04;;;;;;;2.87;1.57;;;18.50;44.10;;;;;;20624;6867;117329;-74
2023/10/22 08:01:29;;;;;;;1.90;1.60;;;18.50;45.10;;;;;;20363;6867;308450;-75
2023/10/22 08:03:55;;;;;;;1.63;1.10;;;18.60;44.10;;;;;;20629;6867;121735;-77
2023/10/22 08:06:23;;;;;;;2.60;1.50;;;18.70;44.40;;;;;;20416;6867;337053;-80
2023/10/22 08:08:48;;;;;;;1.27;1.17;;;18.70;43.80;;;;;;20620;6867;117830;-77
2023/10/22 08:11:14;;;;;;;1.87;1.33;;;18.70;45.20;;;;;;20630;6867;118153;-76
2023/10/22 08:13:39;;;;;;;1.43;1.27;;;18.50;46.10;;;;;;20601;6867;118092;-75
2023/10/22 08:16:05;;;;;;;1.67;1.10;;;18.40;46.10;;;;;;20625;6867;117816;-75
2023/10/22 08:18:31;;;;;;;1.33;1.03;;;18.30;46.50;;;;;;20616;6865;117233;-75
2023/10/22 08:21:00;;;;;;;1.23;1.10;;;18.20;47.00;;;;;;20399;6867;308075;-75
2023/10/22 08:23:26;;;;;;;2.33;1.30;;;18.40;44.80;;;;;;20614;6867;117242;-75
2023/10/22 08:25:51;;;;;;;1.50;1.00;;;18.50;45.60;;;;;;20607;6867;119855;-75
2023/10/22 08:28:18;;;;;;;1.10;0.90;;;18.50;46.20;;;;;;20409;6867;311564;-79
2023/10/22 08:30:45;;;;;;;3.30;1.20;;;18.70;44.40;;;;;;20622;6867;117335;-75
2023/10/22 08:33:10;;;;;;;1.60;1.00;;;18.80;45.20;;;;;;20617;6867;117538;-76
2023/10/22 08:35:36;;;;;;;2.40;0.90;;;18.70;45.70;;;;;;20605;6867;117843;-75
2023/10/22 08:38:02;;;;;;;1.03;0.93;;;18.70;46.20;;;;;;20628;6867;117616;-75
2023/10/22 08:40:27;;;;;;;1.80;1.20;;;18.60;46.50;;;;;;20380;6867;279502;-74
2023/10/22 08:42:53;;;;;;;1.85;1.20;;;18.90;44.40;;;;;;20410;6867;308571;-79
2023/10/22 08:45:18;;;;;;;2.47;1.10;;;19.30;43.60;;;;;;20391;6867;307622;-77
2023/10/22 08:47:44;;;;;;;2.73;1.10;;;19.60;43.00;;;;;;20400;6867;280392;-77
2023/10/22 08:50:11;;;;;;;1.77;1.10;;;19.90;42.10;;;;;;20427;6867;292793;-77
2023/10/22 08:52:35;;;;;;;2.20;0.80;;;20.20;41.50;;;;;;20621;6867;116513;-80
2023/10/22 08:55:01;;;;;;;1.58;0.98;;;20.10;42.50;;;;;;20410;6867;308661;-76
2023/10/22 08:57:27;;;;;;;3.00;1.17;;;20.20;41.90;;;;;;20628;6867;117993;-77
2023/10/22 08:59:53;;;;;;;1.27;0.80;;;20.10;42.70;;;;;;20447;6867;117665;-79
2023/10/22 09:02:23;;;;;;;1.77;0.80;;;19.90;43.20;;;;;;20631;6867;117477;-75
2023/10/22 09:04:44;;;;;;;1.20;1.10;;;19.80;43.70;;;;;;20602;6867;117886;-75
2023/10/22 09:07:10;;;;;;;5.03;1.23;;;19.60;44.10;;;;;;20383;6867;309971;-76
2023/10/22 09:09:36;;;;;;;3.37;3.10;;;19.80;41.50;;;;;;20604;6867;118425;-75
2023/10/22 09:12:02;;;;;;;2.17;1.60;;;19.80;42.60;;;;;;20399;6867;308131;-76
2023/10/22 09:14:27;;;;;;;2.23;1.20;;;20.00;40.40;;;;;;20622;6867;117406;-76
2023/10/22 09:16:53;;;;;;;2.53;1.40;;;20.00;41.50;;;;;;20410;6867;306657;-76
2023/10/22 09:19:47;;;;;;;3.80;2.12;;;20.20;40.50;;;;;;20619;6867;119580;-75
2023/10/22 09:22:09;;;;;;;2.23;1.80;;;20.30;41.70;;;;;;20413;6867;69401;-79
2023/10/22 09:24:34;;;;;;;3.77;2.30;;;20.10;42.40;;;;;;20618;6867;68040;-76
2023/10/22 09:27:00;;;;;;;3.30;2.00;;;20.00;42.90;;;;;;20566;6867;117214;-75
2023/10/22 09:29:31;;;;;;;2.13;1.80;;;19.90;44.00;;;;;;20400;6865;312979;-82
2023/10/22 09:31:54;;;;;;;2.55;1.20;;;20.10;40.80;;;;;;20411;6867;313190;-76
2023/10/22 09:34:27;;;;;;;3.12;1.30;;;20.70;38.30;;;;;;20413;6867;329029;-76
2023/10/22 09:36:56;;;;;;;1.83;1.23;;;20.70;38.40;;;;;;20639;6867;67970;-76
2023/10/22 09:39:35;;;;;;;2.00;1.00;;;20.70;39.90;;;;;;20528;6867;117037;-75
2023/10/22 09:42:04;;;;;;;2.97;1.30;;;20.50;40.70;;;;;;20306;6867;278937;-76
2023/10/22 09:44:28;;;;;;;3.30;1.40;;;20.50;37.80;;;;;;20328;6867;312120;-78
2023/10/22 09:46:55;;;;;;;3.57;1.40;;;20.60;38.00;;;;;;20349;6867;342870;-76
2023/10/22 09:49:21;;;;;;;3.07;1.20;;;20.60;38.00;;;;;;20363;6867;309755;-76
2023/10/22 09:51:48;;;;;;;1.83;1.17;;;20.70;38.60;;;;;;20333;6867;281436;-78
2023/10/22 09:54:14;;;;;;;3.27;1.67;;;20.80;37.60;;;;;;20583;6867;117407;-78
2023/10/22 09:56:39;;;;;;;2.47;1.20;;;20.70;38.80;;;;;;20363;6867;340325;-79
2023/10/22 09:59:04;;;;;;;1.70;0.98;;;20.60;37.90;;;;;;20384;6867;311186;-76
2023/10/22 10:01:32;;;;;;;1.17;0.70;;;20.70;38.60;;;;;;20596;6867;127994;-80
2023/10/22 10:03:59;;;;;;;4.13;1.07;;;20.70;38.60;;;;;;20618;6867;117547;-77
2023/10/22 10:06:26;;;;;;;2.47;0.90;;;20.50;39.30;;;;;;20639;6867;68003;-88
2023/10/22 10:08:51;;;;;;;1.10;0.70;;;20.30;40.10;;;;;;20631;6867;117895;-77
2023/10/22 10:11:17;;;;;;;1.80;0.90;;;20.10;40.60;;;;;;20421;6867;337031;-77
2023/10/22 10:13:42;;;;;;;3.30;0.90;;;20.20;38.70;;;;;;20620;6867;122088;-76
2023/10/22 10:16:08;;;;;;;0.60;0.57;;;20.30;39.70;;;;;;20628;6867;118407;-78
2023/10/22 10:18:58;;;;;;;4.78;0.93;;;20.20;40.20;;;;;;20632;6867;117381;-78
2023/10/22 10:21:33;;;;;;;1.60;0.80;;;20.00;40.80;;;;;;20451;6867;117809;-80
2023/10/22 10:24:29;;;;;;;1.17;0.60;;;19.80;41.30;;;;;;20624;6867;117470;-79
2023/10/22 10:26:55;;;;;;;2.17;0.70;;;19.60;41.50;;;;;;20618;6867;117589;-79
2023/10/22 10:29:20;;;;;;;2.53;0.80;;;19.40;42.00;;;;;;20629;6867;117460;-76
2023/10/22 10:31:47;;;;;;;1.17;0.87;;;19.20;42.00;;;;;;20594;6867;119423;-76
2023/10/22 10:34:31;;;;;;;4.47;1.30;;;18.90;41.90;;;;;;20370;6867;313515;-78
2023/10/22 10:36:56;;;;;;;3.63;3.10;;;19.00;39.80;;;;;;20627;6867;117778;-78
2023/10/22 10:39:49;;;;;;;2.15;1.20;;;18.80;40.90;;;;;;20408;6867;315662;-77
2023/10/22 10:42:31;;;;;;;1.73;1.00;;;18.90;39.90;;;;;;20634;6866;116275;-75
2023/10/22 10:45:06;;;;;;;2.43;1.40;;;18.80;41.10;;;;;;20611;6867;117219;-77
2023/10/22 10:47:22;;;;;;;1.80;1.30;;;18.50;41.90;;;;;;20336;6867;307489;-76
2023/10/22 10:50:05;;;;;;;2.53;1.10;;;18.70;41.20;;;;;;20611;6867;117612;-77
2023/10/22 10:52:30;;;;;;;2.40;1.10;;;18.80;42.00;;;;;;20389;6867;310133;-75
2023/10/22 10:55:16;;;;;;;2.17;1.00;;;19.30;41.70;;;;;;20614;6867;123410;-76
2023/10/22 10:57:41;;;;;;;2.67;0.85;;;19.30;41.60;;;;;;20363;6867;344158;-74
2023/10/22 11:00:09;;;;;;;0.97;0.87;;;19.60;40.40;;;;;;20622;6867;117507;-76
2023/10/22 11:02:39;;;;;;;2.13;0.90;;;19.80;41.00;;;;;;20425;6867;279549;-77
2023/10/22 11:05:04;;;;;;;1.77;1.12;;;20.00;38.50;;;;;;20403;6867;309188;-78
2023/10/22 11:07:30;;;;;;;2.87;1.13;;;20.30;37.50;;;;;;20414;6867;301331;-75
2023/10/22 11:09:56;;;;;;;2.17;0.97;;;20.50;37.10;;;;;;20640;6867;117997;-77
2023/10/22 11:12:22;;;;;;;1.53;0.67;;;20.50;38.20;;;;;;20640;6867;119491;-76
2023/10/22 11:14:47;;;;;;;2.30;0.97;;;20.30;38.90;;;;;;20405;6867;307833;-78
2023/10/22 11:17:12;;;;;;;2.03;1.00;;;20.30;37.20;;;;;;20386;6867;278551;-76
2023/10/22 11:19:38;;;;;;;2.20;1.02;;;20.50;36.80;;;;;;20613;6867;144585;-75
2023/10/22 11:22:04;;;;;;;1.90;1.00;;;20.50;37.80;;;;;;20627;6867;117600;-77
2023/10/22 11:24:29;;;;;;;0.97;0.70;;;20.30;38.30;;;;;;20632;6867;118953;-77
2023/10/22 11:26:54;;;;;;;3.78;1.05;;;20.10;38.90;;;;;;20416;6867;308285;-78
2023/10/22 11:29:21;;;;;;;2.30;1.17;;;20.50;37.10;;;;;;20405;6867;309847;-77
2023/10/22 11:31:50;;;;;;;3.20;0.90;;;20.40;37.00;;;;;;20586;6867;120479;-77
2023/10/22 11:34:35;;;;;;;3.67;1.00;;;20.50;38.00;;;;;;20352;6867;308184;-77
2023/10/22 11:37:01;;;;;;;1.83;0.88;;;20.70;37.50;;;;;;20368;6867;310403;-75
2023/10/22 11:39:34;;;;;;;1.60;0.80;;;20.90;36.10;;;;;;20610;6867;117570;-79
2023/10/22 11:41:59;;;;;;;2.60;1.17;;;20.90;37.10;;;;;;20401;6867;309405;-78
2023/10/22 11:44:30;;;;;;;1.37;0.80;;;20.90;35.80;;;;;;20600;6867;117356;-81
2023/10/22 11:46:53;;;;;;;1.87;1.00;;;20.80;37.00;;;;;;20352;6867;291347;-80
2023/10/22 11:49:19;;;;;;;2.00;1.07;;;20.80;35.60;;;;;;20626;6867;117115;-82
2023/10/22 11:51:44;;;;;;;1.27;0.90;;;20.70;36.60;;;;;;20602;6867;119240;-80
2023/10/22 11:54:10;;;;;;;1.37;1.08;;;20.60;37.30;;;;;;20634;6866;119063;-79
2023/10/22 11:56:37;;;;;;;1.07;0.67;;;20.40;37.70;;;;;;20623;6867;117275;-83
2023/10/22 11:59:04;;;;;;;2.40;1.10;;;20.20;38.30;;;;;;20413;6867;312899;-79
2023/10/22 12:01:28;;;;;;;1.80;1.17;;;20.40;36.40;;;;;;20370;6867;308009;-80
2023/10/22 12:03:54;;;;;;;2.17;1.10;;;20.60;34.80;;;;;;20621;6867;117552;-82
2023/10/22 12:06:19;;;;;;;1.90;1.17;;;20.50;36.10;;;;;;20406;6867;314535;-79
2023/10/22 12:08:45;;;;;;;2.67;1.10;;;20.50;35.60;;;;;;20615;6867;117230;-78
2023/10/22 12:11:11;;;;;;;2.17;0.98;;;20.50;36.70;;;;;;20398;6867;283423;-79
2023/10/22 12:13:36;;;;;;;2.30;1.00;;;20.50;35.30;;;;;;20395;6867;309722;-79
2023/10/22 12:16:05;;;;;;;3.30;0.93;;;20.70;35.90;;;;;;20405;6867;287075;-80
2023/10/22 12:18:31;;;;;;;1.33;0.98;;;20.90;35.70;;;;;;20417;6867;313765;-78
2023/10/22 12:20:56;;;;;;;1.60;1.27;;;21.00;35.30;;;;;;20404;6867;314362;-79
2023/10/22 12:23:22;;;;;;;1.23;1.12;;;20.90;35.80;;;;;;20628;6867;117894;-78
2023/10/22 12:25:48;;;;;;;1.23;0.93;;;20.90;35.20;;;;;;20618;6867;117429;-77
2023/10/22 12:28:13;;;;;;;1.65;1.08;;;20.70;36.30;;;;;;20407;6867;312900;-81
2023/10/22 12:30:39;;;;;;;1.33;0.83;;;20.60;34.30;;;;;;20629;6867;118575;-80
2023/10/22 12:33:05;;;;;;;2.37;1.00;;;20.60;35.70;;;;;;20609;6867;117356;-78